Hovedside
METAR-TAF:

METAR-TAF

Lufthavner :

Sultan Abdul Halim lufthavn

Alor Setar, Malaysia

breddegrad: 06-11-40N, lengdegrad: 100-24-03E, høyde over havet: 5 m

Gjeldene værobservasjon

Denne rapporten ble laget for 1 time og 15 minutter siden, klokken 18:00 UTC
Vind 3 kt fra skiftende retning
Temperatur 26°C
Luftfuktighet 94%
Trykk 1009 hPa
Sikt 10 km eller mer
Få skyer i en høyde av 3000 ft

METAR: WMKA 241800Z VRB03KT 9999 FEW030 26/25 Q1009

Tid: 03:15 (19:15 UTC)

Varsel

Denne rapporten ble laget for 2 timer og 15 minutter siden, klokken 17:00 UTC
Varsel gyldig fra 24. klokken 18 UTC til 25. klokken 18 UTC
Vind 3 kt fra skiftende retning
Sikt 10 km eller mer
Få skyer i en høyde av 2800 ft

TAF: WMKA 241700Z 2418/2518 VRB03KT 9999 FEW028

Værobservasjoner og værvarsel for over 4000 flyplasser (METAR- og TAF-rapporter).

Tilgjengelige stasjoner er representert av de røde og gule prikkene på kartet.

Hold musepekeren over prikken for å se navnet på stasjonen.

Klikk så for å se værobservasjoner og -varsler.

For å forandre kartet kan du klikke på den grønne knappen med svart kryss for å zoome inn, på den grønne knappen med strek for å zoome ut, eller på de grønne pilene for å se tilstøtende kart.


METAR-TAF: